FYWB

Walvis Bay Airport

Airport
ICAO code
FYWB
IATA Code
WVB
Summary
ICAO Region
AFI
ICAO Territory
Location

Walvis Bay, Erongo

Serving
Walvis Bay
Elevation
299 ft
Coordinates
22° 58' 47" S , 14° 38' 43" E
KCC
Metar
FYWB 272200Z AUTO 13009KT //// // ////// 29/04 Q1015

Walvis Bay International Airport is an airport serving Walvis Bay, a town in the Erongo Region of Namibia.

Climatology

Warm desert climate (Köppen climate classification BWh)

Runways

Designator Length Width Surface Rops
9/27 2134 30 ASP No/No

Airport map

Aerial View

SKYbrary Partners:

Safety knowledge contributed by: